createdAt,value
2024-04-19T00:01:55.577Z,64.44
2024-04-19T00:04:22.568Z,64.53
2024-04-19T00:06:51.439Z,64.68
2024-04-19T00:09:18.330Z,64.79
2024-04-19T00:11:45.292Z,64.54
2024-04-19T00:14:12.332Z,64.81
2024-04-19T00:16:39.698Z,64.67
2024-04-19T00:19:07.020Z,64.98
2024-04-19T00:21:33.897Z,65.24
2024-04-19T00:24:01.002Z,65.25
2024-04-19T00:26:28.082Z,65.05
2024-04-19T00:28:55.208Z,65.11
2024-04-19T00:31:22.166Z,65.19
2024-04-19T00:33:49.047Z,64.92
2024-04-19T00:36:15.939Z,64.96
2024-04-19T00:38:43.185Z,64.72
2024-04-19T00:41:10.117Z,64.89
2024-04-19T00:43:36.945Z,65.03
2024-04-19T00:46:06.562Z,64.80
2024-04-19T00:48:33.902Z,65.05
2024-04-19T00:51:03.206Z,65.29
2024-04-19T00:53:34.724Z,65.08
2024-04-19T00:56:04.787Z,65.14
2024-04-19T00:58:32.994Z,64.90
2024-04-19T01:01:06.772Z,64.80
2024-04-19T01:03:34.093Z,64.96
2024-04-19T01:06:01.163Z,65.02
2024-04-19T01:08:28.913Z,65.04
2024-04-19T01:10:56.306Z,65.19
2024-04-19T01:13:23.132Z,64.78
2024-04-19T01:15:50.219Z,64.85
2024-04-19T01:18:17.439Z,64.77
2024-04-19T01:20:45.118Z,65.03
2024-04-19T01:23:13.781Z,64.79
2024-04-19T01:25:42.809Z,64.83
2024-04-19T01:28:11.801Z,65.01
2024-04-19T01:30:44.355Z,65.06
2024-04-19T01:33:12.066Z,65.10
2024-04-19T01:35:39.246Z,64.99
2024-04-19T01:38:06.079Z,65.17
2024-04-19T01:40:32.894Z,65.46
2024-04-19T01:42:59.692Z,65.18
2024-04-19T01:45:27.663Z,64.98
2024-04-19T01:47:54.582Z,65.19
2024-04-19T01:50:21.315Z,65.01
2024-04-19T01:52:48.140Z,64.96
2024-04-19T01:55:16.314Z,64.91
2024-04-19T01:57:43.550Z,64.81
2024-04-19T02:00:11.618Z,64.56
2024-04-19T02:02:38.921Z,64.88
2024-04-19T02:05:06.074Z,65.04
2024-04-19T02:07:32.860Z,65.34
2024-04-19T02:09:59.847Z,65.35
2024-04-19T02:12:26.849Z,65.38
2024-04-19T02:14:54.625Z,65.49
2024-04-19T02:17:21.549Z,65.25
2024-04-19T02:19:48.539Z,65.26
2024-04-19T02:22:15.436Z,65.30
2024-04-19T02:24:42.445Z,65.18
2024-04-19T02:27:29.187Z,65.27
2024-04-19T02:30:14.492Z,65.33
2024-04-19T02:32:41.743Z,65.65
2024-04-19T02:35:08.568Z,65.63
2024-04-19T02:37:35.310Z,65.36
2024-04-19T02:40:02.161Z,65.36
2024-04-19T02:42:29.229Z,65.39
2024-04-19T02:44:55.972Z,65.42
2024-04-19T02:47:22.688Z,65.65
2024-04-19T02:49:49.599Z,65.69
2024-04-19T02:52:16.398Z,66.04
2024-04-19T02:54:43.191Z,65.74
2024-04-19T02:57:10.165Z,65.66
2024-04-19T02:59:37.143Z,65.62
2024-04-19T03:02:03.877Z,65.57
2024-04-19T03:04:30.714Z,65.89
2024-04-19T03:06:57.470Z,65.87
2024-04-19T03:09:24.256Z,65.77
2024-04-19T03:11:53.555Z,65.42
2024-04-19T03:14:21.694Z,65.89
2024-04-19T03:16:52.398Z,65.76
2024-04-19T03:19:19.308Z,66.02
2024-04-19T03:21:46.137Z,66.22
2024-04-19T03:24:12.907Z,66.15
2024-04-19T03:26:39.646Z,66.12
2024-04-19T03:29:07.751Z,65.83
2024-04-19T03:31:34.505Z,65.73
2024-04-19T03:34:01.731Z,66.21
2024-04-19T03:36:28.688Z,66.10
2024-04-19T03:38:55.562Z,66.26
2024-04-19T03:41:22.387Z,66.43
2024-04-19T03:44:08.654Z,66.74
2024-04-19T03:46:35.431Z,67.07
2024-04-19T03:49:02.178Z,67.48
2024-04-19T03:51:29.177Z,67.39
2024-04-19T03:53:55.917Z,67.75
2024-04-19T03:56:23.650Z,67.66
2024-04-19T03:58:51.266Z,67.91
2024-04-19T04:01:18.031Z,67.76
2024-04-19T04:03:44.877Z,67.78
2024-04-19T04:06:11.637Z,67.70
2024-04-19T04:08:38.314Z,67.98
2024-04-19T04:11:05.490Z,67.97
2024-04-19T04:13:32.293Z,68.16
2024-04-19T04:15:59.598Z,68.06
2024-04-19T04:18:26.515Z,68.40
2024-04-19T04:20:53.444Z,68.52
2024-04-19T04:23:20.332Z,68.67
2024-04-19T04:25:47.118Z,68.87
2024-04-19T04:28:13.871Z,69.10
2024-04-19T04:30:43.048Z,68.95
2024-04-19T04:33:10.177Z,68.87
2024-04-19T04:35:40.243Z,68.63
2024-04-19T04:38:07.974Z,68.46
2024-04-19T04:40:35.389Z,68.21
2024-04-19T04:43:02.394Z,68.21
2024-04-19T04:45:31.817Z,67.98
2024-04-19T04:47:58.881Z,67.98
2024-04-19T04:50:25.662Z,68.40
2024-04-19T04:52:52.873Z,68.65
2024-04-19T04:55:19.577Z,68.97
2024-04-19T04:57:46.586Z,69.30
2024-04-19T05:00:13.598Z,69.15
2024-04-19T05:02:40.489Z,69.54
2024-04-19T05:05:07.455Z,69.78
2024-04-19T05:07:34.240Z,70.01
2024-04-19T05:10:00.991Z,69.94
2024-04-19T05:12:29.242Z,69.89
2024-04-19T05:14:56.078Z,69.99
2024-04-19T05:17:22.971Z,70.48
2024-04-19T05:19:49.922Z,70.20
2024-04-19T05:22:16.697Z,70.14
2024-04-19T05:24:47.127Z,70.03
2024-04-19T05:27:14.189Z,70.04
2024-04-19T05:29:40.946Z,69.95
2024-04-19T05:32:07.889Z,69.94
2024-04-19T05:34:36.878Z,69.85
2024-04-19T05:37:04.239Z,70.16
2024-04-19T05:39:31.004Z,69.68
2024-04-19T05:41:58.664Z,70.02
2024-04-19T05:44:32.621Z,70.25
2024-04-19T05:47:00.117Z,69.81
2024-04-19T05:49:29.937Z,69.93
2024-04-19T05:51:56.831Z,70.34
2024-04-19T05:54:24.160Z,70.06
2024-04-19T05:56:51.092Z,70.22
2024-04-19T05:59:18.764Z,70.00
2024-04-19T06:01:46.646Z,69.91
2024-04-19T06:04:13.884Z,69.93
2024-04-19T06:06:40.788Z,70.21
2024-04-19T06:09:07.618Z,69.99
2024-04-19T06:11:34.428Z,69.90
2024-04-19T06:14:01.274Z,69.73
2024-04-19T06:16:27.993Z,69.81
2024-04-19T06:18:54.990Z,69.60
2024-04-19T06:21:21.892Z,69.50
2024-04-19T06:23:48.913Z,69.60
2024-04-19T06:26:15.795Z,69.70
2024-04-19T06:28:43.911Z,69.68
2024-04-19T06:31:12.689Z,69.40
2024-04-19T06:33:41.835Z,69.56
2024-04-19T06:36:08.931Z,70.01
2024-04-19T06:38:37.753Z,69.83
2024-04-19T06:41:05.736Z,69.77
2024-04-19T06:43:32.991Z,70.05
2024-04-19T06:46:00.640Z,70.34
2024-04-19T09:50:37.428Z,69.81
2024-04-19T09:53:11.300Z,70.90
2024-04-19T09:55:58.187Z,70.19
2024-04-19T09:58:25.755Z,69.67
2024-04-19T10:00:54.057Z,69.44
2024-04-19T10:03:23.416Z,69.64
2024-04-19T10:05:51.450Z,69.04
2024-04-19T10:08:19.070Z,70.33
2024-04-19T10:10:45.990Z,69.63
2024-04-19T10:13:12.915Z,69.79
2024-04-19T10:15:39.801Z,69.91
2024-04-19T10:18:08.174Z,69.67
2024-04-19T10:20:38.802Z,69.98
2024-04-19T10:23:05.727Z,70.51
2024-04-19T10:25:37.623Z,70.04
2024-04-19T10:28:04.830Z,70.47
2024-04-19T10:30:36.740Z,70.17
2024-04-19T10:33:04.799Z,70.15
2024-04-19T10:35:38.892Z,70.37
2024-04-19T10:38:05.892Z,70.48
2024-04-19T10:40:32.621Z,70.45
2024-04-19T10:43:05.682Z,70.38
2024-04-19T10:45:32.765Z,70.39
2024-04-19T10:48:00.825Z,69.89
2024-04-19T10:50:31.886Z,70.94
2024-04-19T10:52:59.190Z,71.34
2024-04-19T10:55:29.190Z,71.34
2024-04-19T10:57:59.334Z,71.37
2024-04-19T11:00:28.015Z,70.80
2024-04-19T11:03:06.936Z,70.78
2024-04-19T11:05:41.646Z,71.87
2024-04-19T11:08:09.217Z,70.44
2024-04-19T11:10:36.178Z,70.99
2024-04-19T11:13:05.423Z,70.55
2024-04-19T11:15:39.937Z,70.14
2024-04-19T11:18:14.891Z,71.33
2024-04-19T11:20:43.867Z,70.89
2024-04-19T11:23:13.141Z,70.39
2024-04-19T11:25:41.429Z,71.46
2024-04-19T11:28:09.766Z,70.76
2024-04-19T11:30:40.546Z,70.32
2024-04-19T11:33:12.199Z,70.34
2024-04-19T11:35:40.910Z,70.10
2024-04-19T11:38:08.364Z,69.92
2024-04-19T11:40:35.503Z,70.10
2024-04-19T11:43:02.503Z,69.75
2024-04-19T11:45:29.900Z,69.47
2024-04-19T11:47:59.779Z,70.50
2024-04-19T11:50:29.554Z,70.14
2024-04-19T11:52:56.333Z,70.49
2024-04-19T11:55:23.209Z,70.33
2024-04-19T11:57:50.993Z,71.60
2024-04-19T12:00:21.058Z,71.30
2024-04-19T12:02:47.944Z,70.30
2024-04-19T12:05:14.848Z,70.82
2024-04-19T12:07:41.755Z,70.84
2024-04-19T12:10:08.910Z,70.49
2024-04-19T12:13:15.288Z,71.00
2024-04-19T12:16:04.627Z,71.59
2024-04-19T12:18:09.953Z,71.48
2024-04-19T12:20:47.123Z,71.41
2024-04-19T12:23:20.417Z,71.72
2024-04-19T12:25:50.775Z,71.09
2024-04-19T12:28:18.475Z,71.33
2024-04-19T12:30:45.640Z,71.47
2024-04-19T12:33:12.389Z,71.63
2024-04-19T12:35:39.185Z,71.86
2024-04-19T12:38:06.677Z,71.43
2024-04-19T12:40:35.335Z,71.86
2024-04-19T12:43:02.941Z,70.89
2024-04-19T12:45:30.032Z,70.62
2024-04-19T12:48:05.579Z,70.73
2024-04-19T12:50:37.119Z,71.13
2024-04-19T12:53:04.860Z,71.20
2024-04-19T12:55:36.071Z,71.28
2024-04-19T12:58:03.319Z,71.27
2024-04-19T13:00:30.404Z,71.52
2024-04-19T13:02:57.589Z,72.06
2024-04-19T13:05:25.124Z,71.51
2024-04-19T13:07:52.094Z,71.80
2024-04-19T13:10:23.233Z,71.56
2024-04-19T13:12:50.375Z,71.93
2024-04-19T13:15:17.394Z,72.32
2024-04-19T13:17:44.481Z,72.66
2024-04-19T13:20:11.342Z,72.98
2024-04-19T13:22:38.180Z,72.78
2024-04-19T13:25:05.467Z,72.83
2024-04-19T13:27:33.003Z,72.30
2024-04-19T13:30:00.846Z,72.83
2024-04-19T13:32:27.741Z,72.80
2024-04-19T13:34:54.841Z,72.96
2024-04-19T13:37:24.563Z,73.19
2024-04-19T13:39:51.429Z,73.03
2024-04-19T13:42:18.598Z,73.26
2024-04-19T13:44:45.260Z,73.23
2024-04-19T13:47:14.310Z,72.77
2024-04-19T13:49:41.858Z,73.36
2024-04-19T13:52:09.484Z,73.66
2024-04-19T13:54:36.384Z,73.44
2024-04-19T13:57:03.679Z,73.73
2024-04-19T13:59:30.601Z,73.51
2024-04-19T14:01:57.992Z,73.50
2024-04-19T14:04:25.218Z,74.08
2024-04-19T14:06:52.448Z,73.57
2024-04-19T14:09:19.340Z,73.30
2024-04-19T14:11:46.682Z,73.40
2024-04-19T14:14:13.488Z,73.84
2024-04-19T14:16:40.318Z,73.45
2024-04-19T14:19:07.460Z,73.35
2024-04-19T14:21:34.268Z,73.46
2024-04-19T14:24:01.329Z,73.13
2024-04-19T14:26:29.215Z,73.37
2024-04-19T14:28:56.005Z,73.40
2024-04-19T14:31:23.738Z,73.44
2024-04-19T14:33:50.966Z,73.55
2024-04-19T14:36:18.231Z,73.36
2024-04-19T14:38:45.061Z,73.03
2024-04-19T14:41:12.083Z,73.19
2024-04-19T14:43:40.365Z,72.93
2024-04-19T14:46:08.812Z,73.32
2024-04-19T14:48:39.023Z,73.46
2024-04-19T14:51:05.929Z,73.36
2024-04-19T14:53:32.899Z,73.11
2024-04-19T14:56:00.667Z,72.99
2024-04-19T14:58:27.742Z,72.63
2024-04-19T15:00:54.574Z,72.98
2024-04-19T15:03:21.538Z,73.21
2024-04-19T15:05:49.727Z,73.51
2024-04-19T15:08:16.577Z,73.59
2024-04-19T15:10:43.378Z,73.96
2024-04-19T15:13:10.295Z,73.80
2024-04-19T15:15:37.215Z,73.37
2024-04-19T15:18:04.579Z,73.19
2024-04-19T15:20:38.429Z,72.92
2024-04-19T15:23:09.081Z,73.07
2024-04-19T15:25:37.622Z,73.08
2024-04-19T15:28:10.219Z,72.80
2024-04-19T15:30:44.641Z,72.96
2024-04-19T15:33:11.872Z,72.94
2024-04-19T15:35:39.585Z,72.95
2024-04-19T15:38:11.356Z,72.93
2024-04-19T15:40:42.123Z,73.14
2024-04-19T15:43:08.990Z,73.00
2024-04-19T15:45:36.007Z,72.99
2024-04-19T15:48:03.518Z,73.03
2024-04-19T15:50:30.535Z,73.20
2024-04-19T15:52:57.608Z,73.58
2024-04-19T15:55:24.358Z,73.94
2024-04-19T15:57:51.514Z,74.04
2024-04-19T16:00:19.176Z,73.75
2024-04-19T16:02:46.179Z,73.89
2024-04-19T16:05:14.473Z,73.63
2024-04-19T16:07:41.460Z,73.90
2024-04-19T16:10:08.236Z,73.86
2024-04-19T16:12:35.037Z,74.34
2024-04-19T16:15:02.292Z,74.14
2024-04-19T16:17:29.376Z,74.31
2024-04-19T16:19:56.264Z,74.09
2024-04-19T16:22:23.355Z,74.10
2024-04-19T16:24:50.703Z,74.08
2024-04-19T16:27:17.837Z,74.26
2024-04-19T16:29:44.784Z,74.27
2024-04-19T16:32:12.087Z,74.29
2024-04-19T16:34:39.435Z,73.74
2024-04-19T16:37:06.291Z,73.87
2024-04-19T16:39:33.421Z,74.08
2024-04-19T16:42:00.217Z,73.97
2024-04-19T16:44:27.292Z,73.82
2024-04-19T16:46:54.169Z,73.96
2024-04-19T16:49:21.151Z,73.94
2024-04-19T16:51:48.190Z,74.08
2024-04-19T16:54:15.142Z,74.11
2024-04-19T16:56:43.104Z,74.27
2024-04-19T16:59:10.614Z,74.08
2024-04-19T17:01:38.392Z,74.39
2024-04-19T17:04:05.396Z,74.48
2024-04-19T17:06:35.549Z,74.50
2024-04-19T17:09:02.908Z,74.25
2024-04-19T17:11:29.867Z,74.31
2024-04-19T17:13:56.630Z,74.41
2024-04-19T17:16:23.466Z,74.22
2024-04-19T17:18:53.245Z,74.57
2024-04-19T17:21:20.216Z,74.30
2024-04-19T17:23:49.981Z,74.38
2024-04-19T17:26:16.855Z,74.19
2024-04-19T17:28:43.629Z,74.36
2024-04-19T17:31:13.871Z,74.38
2024-04-19T17:33:41.113Z,74.25
2024-04-19T17:36:08.092Z,74.63
2024-04-19T17:38:34.905Z,74.41
2024-04-19T17:41:04.204Z,73.83
2024-04-19T17:43:31.735Z,74.04
2024-04-19T17:45:58.836Z,74.00
2024-04-19T17:48:26.368Z,73.99
2024-04-19T17:50:55.183Z,73.93
2024-04-19T17:53:22.594Z,74.16
2024-04-19T17:55:52.103Z,73.95
2024-04-19T17:58:19.185Z,74.06
2024-04-19T18:00:49.515Z,74.13
2024-04-19T18:03:16.480Z,73.93
2024-04-19T18:05:43.647Z,74.23
2024-04-19T18:08:10.546Z,74.34
2024-04-19T18:10:37.574Z,74.67
2024-04-19T18:13:04.504Z,74.67
2024-04-19T18:15:31.680Z,74.69
2024-04-19T18:18:05.136Z,74.41
2024-04-19T18:20:32.225Z,74.97
2024-04-19T18:23:00.373Z,75.36
2024-04-19T18:25:27.393Z,74.99
2024-04-19T18:27:54.578Z,75.03
2024-04-19T18:30:21.558Z,74.77
2024-04-19T18:32:49.099Z,74.98
2024-04-19T18:35:16.132Z,75.02
2024-04-19T18:37:43.237Z,74.99
2024-04-19T18:40:10.615Z,74.88
2024-04-19T18:42:37.873Z,74.72
2024-04-19T18:45:05.386Z,74.66
2024-04-19T18:47:32.571Z,74.87
2024-04-19T18:49:59.322Z,74.96
2024-04-19T18:52:26.753Z,74.87
2024-04-19T18:54:53.635Z,75.00
2024-04-19T18:57:20.493Z,75.10
2024-04-19T18:59:51.862Z,75.08
2024-04-19T19:02:18.715Z,75.14
2024-04-19T19:04:45.946Z,75.14
2024-04-19T19:07:14.648Z,75.37
2024-04-19T19:09:41.676Z,75.30
2024-04-19T19:12:08.600Z,75.33
2024-04-19T19:14:36.611Z,75.32
2024-04-19T19:17:03.915Z,75.42
2024-04-19T19:19:30.870Z,75.36
2024-04-19T19:21:57.791Z,75.41
2024-04-19T19:24:25.694Z,74.90
2024-04-19T19:26:52.516Z,75.04
2024-04-19T19:29:23.630Z,74.99
2024-04-19T19:31:50.668Z,75.06
2024-04-19T19:34:17.567Z,75.55
2024-04-19T19:36:46.751Z,75.59
2024-04-19T19:39:13.766Z,75.32
2024-04-19T19:41:40.568Z,75.63
2024-04-19T19:44:07.562Z,75.53
2024-04-19T19:46:34.573Z,75.54
2024-04-19T19:49:01.567Z,75.35
2024-04-19T19:51:28.498Z,75.41
2024-04-19T19:53:55.357Z,75.46
2024-04-19T19:56:22.393Z,75.40
2024-04-19T19:58:49.699Z,75.48
2024-04-19T20:01:35.613Z,75.42
2024-04-19T20:04:21.406Z,75.25
2024-04-19T20:06:50.981Z,75.16
2024-04-19T20:09:21.204Z,75.01
2024-04-19T20:11:50.271Z,74.96
2024-04-19T20:14:17.464Z,75.14
2024-04-19T20:16:44.524Z,74.73
2024-04-19T20:19:11.336Z,74.77
2024-04-19T20:21:38.206Z,74.74
2024-04-19T20:24:05.241Z,74.65
2024-04-19T20:26:31.993Z,74.69
2024-04-19T20:29:03.590Z,74.49
2024-04-19T20:31:31.052Z,74.41
2024-04-19T20:33:58.060Z,74.31
2024-04-19T20:36:25.330Z,74.30
2024-04-19T20:38:52.387Z,74.09
2024-04-19T20:41:19.871Z,74.07
2024-04-19T20:43:46.786Z,74.03
2024-04-19T20:46:14.176Z,73.86
2024-04-19T20:48:41.632Z,74.00
2024-04-19T20:51:08.596Z,73.70
2024-04-19T20:53:36.060Z,74.02
2024-04-19T20:56:04.381Z,73.96
2024-04-19T20:58:31.187Z,73.58
2024-04-19T21:00:58.128Z,73.74
2024-04-19T21:03:25.069Z,73.96
2024-04-19T21:05:51.915Z,73.95
2024-04-19T21:08:18.891Z,73.75
2024-04-19T21:10:46.098Z,73.76
2024-04-19T21:13:13.204Z,73.79
2024-04-19T21:15:40.157Z,73.77
2024-04-19T21:18:07.241Z,73.78
2024-04-19T21:20:36.252Z,73.71
2024-04-19T21:23:03.522Z,73.63
2024-04-19T21:25:30.570Z,74.06
2024-04-19T21:27:57.324Z,73.70
2024-04-19T21:30:24.288Z,74.11
2024-04-19T21:32:51.390Z,74.33
2024-04-19T21:35:19.417Z,74.41
2024-04-19T21:37:46.749Z,74.72
2024-04-19T21:40:14.834Z,74.75
2024-04-19T21:42:42.391Z,74.80
2024-04-19T21:45:09.958Z,74.53
2024-04-19T21:47:36.825Z,74.61
2024-04-19T21:50:04.001Z,74.47
2024-04-19T21:52:30.812Z,74.42
2024-04-19T21:54:57.773Z,74.60
2024-04-19T21:57:25.124Z,74.58
2024-04-19T21:59:52.156Z,74.73
2024-04-19T22:02:20.087Z,74.83
2024-04-19T22:04:51.085Z,74.84
2024-04-19T22:07:18.219Z,74.90
2024-04-19T22:09:45.143Z,75.00
2024-04-19T22:12:12.952Z,74.91
2024-04-19T22:14:40.079Z,75.06
2024-04-19T22:17:08.424Z,75.09
2024-04-19T22:19:39.151Z,75.15
2024-04-19T22:22:06.132Z,75.11
2024-04-19T22:24:32.916Z,75.04
2024-04-19T22:26:59.866Z,75.02
2024-04-19T22:29:28.783Z,74.90
2024-04-19T22:31:55.807Z,74.95
2024-04-19T22:34:22.752Z,75.06
2024-04-19T22:36:49.762Z,74.82
2024-04-19T22:39:17.559Z,74.94
2024-04-19T22:41:44.588Z,74.78
2024-04-19T22:44:11.261Z,74.76
2024-04-19T22:46:38.059Z,74.40
2024-04-19T22:49:05.148Z,74.49
2024-04-19T22:51:32.099Z,74.34
2024-04-19T22:53:58.915Z,74.36
2024-04-19T22:56:26.022Z,74.08
2024-04-19T22:58:52.734Z,73.96
2024-04-19T23:01:21.157Z,74.02
2024-04-19T23:03:48.318Z,73.84
2024-04-19T23:06:15.776Z,73.85
2024-04-19T23:08:42.565Z,73.64
2024-04-19T23:11:10.551Z,73.39
2024-04-19T23:13:37.530Z,73.59
2024-04-19T23:16:04.703Z,73.47
2024-04-19T23:18:31.565Z,73.63
2024-04-19T23:21:06.134Z,73.62
2024-04-19T23:23:34.164Z,73.61
2024-04-19T23:26:00.984Z,73.38
2024-04-19T23:28:28.414Z,73.50
2024-04-19T23:30:58.771Z,73.67
2024-04-19T23:33:26.507Z,73.54
2024-04-19T23:35:57.900Z,73.46
2024-04-19T23:38:25.726Z,73.48
2024-04-19T23:40:53.128Z,73.60
2024-04-19T23:43:20.379Z,73.35
2024-04-19T23:45:48.625Z,73.32
2024-04-19T23:48:15.526Z,73.45
2024-04-19T23:50:42.664Z,73.67
2024-04-19T23:53:09.562Z,72.51
2024-04-19T23:55:36.903Z,70.85
2024-04-19T23:58:03.864Z,70.84
